createdAt,value
2022-09-25T00:02:52.545Z,13.40
2022-09-25T00:07:56.855Z,13.40
2022-09-25T00:12:58.604Z,13.40
2022-09-25T00:18:00.313Z,13.40
2022-09-25T00:23:02.316Z,13.40
2022-09-25T00:28:04.027Z,13.40
2022-09-25T00:33:05.856Z,13.30
2022-09-25T00:38:07.559Z,13.30
2022-09-25T00:43:33.266Z,13.30
2022-09-25T00:48:35.853Z,13.20
2022-09-25T00:53:40.856Z,13.20
2022-09-25T00:58:42.888Z,13.20
2022-09-25T01:03:46.285Z,13.20
2022-09-25T01:08:48.950Z,13.20
2022-09-25T01:13:54.385Z,13.30
2022-09-25T01:18:58.790Z,13.30
2022-09-25T01:24:23.490Z,13.30
2022-09-25T01:29:40.641Z,13.30
2022-09-25T01:35:12.761Z,13.30
2022-09-25T01:40:28.148Z,13.30
2022-09-25T01:45:51.773Z,13.40
2022-09-25T01:51:16.785Z,13.40
2022-09-25T01:56:31.503Z,13.50
2022-09-25T02:01:38.843Z,13.40
2022-09-25T02:06:46.085Z,13.50
2022-09-25T02:11:51.325Z,13.40
2022-09-25T02:16:56.532Z,13.40
2022-09-25T02:22:06.619Z,13.40
2022-09-25T02:27:08.465Z,13.40
2022-09-25T02:32:13.423Z,13.40
2022-09-25T02:37:17.003Z,13.40
2022-09-25T02:42:48.279Z,13.40
2022-09-25T02:48:05.667Z,13.40
2022-09-25T02:53:25.407Z,13.40
2022-09-25T02:58:33.688Z,13.40
2022-09-25T03:03:38.288Z,13.40
2022-09-25T03:08:49.194Z,13.30
2022-09-25T03:14:01.762Z,13.30
2022-09-25T03:19:03.943Z,13.30
2022-09-25T03:24:06.218Z,13.30
2022-09-25T03:29:08.430Z,13.20
2022-09-25T03:34:11.404Z,13.20
2022-09-25T03:39:15.164Z,13.10
2022-09-25T03:44:17.195Z,13.10
2022-09-25T03:49:18.887Z,13.10
2022-09-25T03:54:20.632Z,13.10
2022-09-25T03:59:22.341Z,13.00
2022-09-25T04:04:24.106Z,13.00
2022-09-25T04:09:25.816Z,13.00
2022-09-25T04:14:27.504Z,13.00
2022-09-25T04:19:29.178Z,12.90
2022-09-25T04:24:49.005Z,12.90
2022-09-25T04:29:50.765Z,12.90
2022-09-25T04:34:53.106Z,12.90
2022-09-25T04:39:58.246Z,12.90
2022-09-25T04:45:00.063Z,12.80
2022-09-25T04:50:01.853Z,12.90
2022-09-25T04:55:04.237Z,12.80
2022-09-25T05:00:07.287Z,12.80
2022-09-25T05:05:09.407Z,12.80
2022-09-25T05:10:11.110Z,12.70
2022-09-25T05:15:13.153Z,12.70
2022-09-25T05:20:14.891Z,12.70
2022-09-25T05:25:16.773Z,12.70
2022-09-25T05:30:18.671Z,12.70
2022-09-25T05:35:22.786Z,12.60
2022-09-25T05:40:25.152Z,12.60
2022-09-25T05:45:26.905Z,12.70
2022-09-25T05:50:28.883Z,12.70
2022-09-25T05:55:31.239Z,12.60
2022-09-25T06:00:33.410Z,12.60
2022-09-25T06:05:35.195Z,12.60
2022-09-25T06:10:36.943Z,12.50
2022-09-25T06:15:41.255Z,12.50
2022-09-25T06:20:43.239Z,12.50
2022-09-25T06:25:46.107Z,12.50
2022-09-25T06:30:47.954Z,12.70
2022-09-25T06:35:50.231Z,12.80
2022-09-25T06:40:52.268Z,13.00
2022-09-25T06:45:54.277Z,13.20
2022-09-25T06:50:59.050Z,13.40
2022-09-25T06:56:01.713Z,13.50
2022-09-25T07:01:09.063Z,13.60
2022-09-25T07:06:14.689Z,13.80
2022-09-25T07:11:22.694Z,13.80
2022-09-25T07:16:28.330Z,14.00
2022-09-25T07:21:32.365Z,14.20
2022-09-25T07:26:34.624Z,14.10
2022-09-25T07:31:39.144Z,14.20
2022-09-25T07:36:42.840Z,14.30
2022-09-25T07:41:44.710Z,14.50
2022-09-25T07:46:46.642Z,14.60
2022-09-25T07:51:48.443Z,14.80
2022-09-25T07:56:50.174Z,15.10
2022-09-25T08:01:54.131Z,15.20
2022-09-25T08:06:59.139Z,15.30
2022-09-25T08:12:00.958Z,15.40
2022-09-25T08:17:02.678Z,15.50
2022-09-25T08:22:04.815Z,15.70
2022-09-25T08:27:07.808Z,15.90
2022-09-25T08:32:09.545Z,15.70
2022-09-25T08:37:11.524Z,15.70
2022-09-25T08:42:32.169Z,16.10
2022-09-25T08:47:52.442Z,16.20
2022-09-25T08:53:08.716Z,16.10
2022-09-25T08:58:13.158Z,16.30
2022-09-25T09:03:17.010Z,16.40
2022-09-25T09:08:25.281Z,16.20
2022-09-25T09:13:28.969Z,16.20
2022-09-25T09:18:41.501Z,16.30
2022-09-25T09:24:12.250Z,16.50
2022-09-25T09:29:24.734Z,16.60
2022-09-25T09:34:53.490Z,16.70
2022-09-25T09:40:31.981Z,16.50
2022-09-25T09:45:55.346Z,16.40
2022-09-25T09:51:04.338Z,16.20
2022-09-25T09:56:14.909Z,16.20
2022-09-25T10:06:53.021Z,16.50
2022-09-25T10:12:15.421Z,16.60
2022-09-25T10:17:19.470Z,16.70
2022-09-25T10:22:34.013Z,16.70
2022-09-25T10:27:49.145Z,16.80
2022-09-25T10:33:13.883Z,16.70
2022-09-25T10:38:34.655Z,17.00
2022-09-25T10:43:55.182Z,17.20
2022-09-25T10:49:35.881Z,17.40
2022-09-25T10:54:44.443Z,17.60
2022-09-25T10:59:50.101Z,17.80
2022-09-25T11:04:53.023Z,17.60
2022-09-25T11:09:59.190Z,17.70
2022-09-25T11:15:08.823Z,17.90
2022-09-25T11:20:17.601Z,18.20
2022-09-25T11:25:23.272Z,18.50
2022-09-25T11:30:31.232Z,18.40
2022-09-25T11:35:53.078Z,18.80
2022-09-25T11:41:14.756Z,18.90
2022-09-25T11:46:37.199Z,19.30
2022-09-25T11:52:03.551Z,19.50
2022-09-25T11:57:35.354Z,19.60
2022-09-25T12:03:14.861Z,19.30
2022-09-25T12:08:32.652Z,19.20
2022-09-25T12:13:54.488Z,19.30
2022-09-25T12:19:27.007Z,19.60
2022-09-25T12:24:59.848Z,20.00
2022-09-25T12:30:20.266Z,20.00
2022-09-25T12:35:38.492Z,19.80
2022-09-25T12:40:44.863Z,20.00
2022-09-25T12:46:13.102Z,20.30
2022-09-25T12:51:41.045Z,20.60
2022-09-25T12:56:51.251Z,20.90
2022-09-25T13:02:15.076Z,21.00
2022-09-25T13:07:23.529Z,21.10
2022-09-25T13:12:32.558Z,21.50
2022-09-25T13:17:35.403Z,21.50
2022-09-25T13:22:41.387Z,21.60
2022-09-25T13:27:47.128Z,21.10
2022-09-25T13:32:51.094Z,20.80
2022-09-25T13:37:56.458Z,20.80
2022-09-25T13:43:24.300Z,20.90
2022-09-25T13:48:32.111Z,20.90
2022-09-25T13:54:03.156Z,20.50
2022-09-25T13:59:21.918Z,20.80
2022-09-25T14:04:34.261Z,20.70
2022-09-25T14:09:40.785Z,21.00
2022-09-25T14:14:52.571Z,21.30
2022-09-25T14:19:56.279Z,21.40
2022-09-25T14:24:57.980Z,21.20
2022-09-25T14:30:11.196Z,21.10
2022-09-25T14:35:47.073Z,20.80
2022-09-25T14:41:10.079Z,20.50
2022-09-25T14:46:15.077Z,20.30
2022-09-25T14:51:40.838Z,20.10
2022-09-25T14:56:48.435Z,20.20
2022-09-25T15:01:52.929Z,20.10
2022-09-25T15:07:07.037Z,20.10
2022-09-25T15:12:18.855Z,20.10
2022-09-25T15:17:23.318Z,19.60
2022-09-25T15:22:31.041Z,19.40
2022-09-25T15:27:33.620Z,19.50
2022-09-25T15:32:39.570Z,19.10
2022-09-25T15:37:41.654Z,18.90
2022-09-25T15:42:48.412Z,18.90
2022-09-25T15:47:53.143Z,18.80
2022-09-25T15:52:58.613Z,18.80
2022-09-25T15:58:13.692Z,18.70
2022-09-25T16:03:42.461Z,18.50
2022-09-25T16:08:44.410Z,18.20
2022-09-25T16:13:49.153Z,18.10
2022-09-25T16:18:54.099Z,18.00
2022-09-25T16:24:01.830Z,17.90
2022-09-25T16:29:12.772Z,17.70
2022-09-25T16:34:26.122Z,17.80
2022-09-25T16:39:32.237Z,17.50
2022-09-25T16:44:34.084Z,17.20
2022-09-25T16:49:35.870Z,17.10
2022-09-25T16:54:38.375Z,17.10
2022-09-25T16:59:40.085Z,17.10
2022-09-25T17:04:41.814Z,17.00
2022-09-25T17:09:43.643Z,17.00
2022-09-25T17:14:45.489Z,17.00
2022-09-25T17:19:47.950Z,17.00
2022-09-25T17:24:49.710Z,16.90
2022-09-25T17:29:51.617Z,16.80
2022-09-25T17:34:55.211Z,16.70
2022-09-25T17:39:56.988Z,16.60
2022-09-25T17:44:58.823Z,16.60
2022-09-25T17:50:00.508Z,16.50
2022-09-25T17:55:02.255Z,16.50
2022-09-25T18:00:04.324Z,16.50
2022-09-25T18:05:28.330Z,16.40
2022-09-25T18:10:30.470Z,16.30
2022-09-25T18:15:34.418Z,16.20
2022-09-25T18:20:54.961Z,16.10
2022-09-25T18:25:57.034Z,16.00
2022-09-25T18:30:59.048Z,16.00
2022-09-25T18:36:00.954Z,15.90
2022-09-25T18:41:03.254Z,16.00
2022-09-25T18:46:05.497Z,15.90
2022-09-25T18:51:07.213Z,15.80
2022-09-25T18:56:09.388Z,15.80
2022-09-25T19:01:11.369Z,15.70
2022-09-25T19:06:13.281Z,15.50
2022-09-25T19:11:15.295Z,15.50
2022-09-25T19:16:18.516Z,15.30
2022-09-25T19:21:26.483Z,15.20
2022-09-25T19:26:28.231Z,15.20
2022-09-25T19:31:30.135Z,15.10
2022-09-25T19:36:34.751Z,14.90
2022-09-25T19:41:37.987Z,14.90
2022-09-25T19:46:41.380Z,15.00
2022-09-25T19:51:43.977Z,14.80
2022-09-25T19:56:46.075Z,14.70
2022-09-25T20:01:48.046Z,14.70
2022-09-25T20:06:49.912Z,14.70
2022-09-25T20:11:51.942Z,14.60
2022-09-25T20:16:55.057Z,14.70
2022-09-25T20:21:56.897Z,14.80
2022-09-25T20:26:58.618Z,14.70
2022-09-25T20:32:00.521Z,14.70
2022-09-25T20:37:03.649Z,14.60
2022-09-25T20:42:05.874Z,14.50
2022-09-25T20:47:08.258Z,14.50
2022-09-25T20:52:12.351Z,14.40
2022-09-25T20:57:14.083Z,14.40
2022-09-25T21:02:15.992Z,14.40
2022-09-25T21:07:17.763Z,14.40
2022-09-25T21:12:19.843Z,14.30
2022-09-25T21:17:21.542Z,14.20
2022-09-25T21:22:23.306Z,14.00
2022-09-25T21:27:25.027Z,14.00
2022-09-25T21:32:29.072Z,14.20
2022-09-25T21:37:30.894Z,14.20
2022-09-25T21:42:32.604Z,14.10
2022-09-25T21:47:34.317Z,14.10
2022-09-25T21:52:38.592Z,14.00
2022-09-25T21:57:40.315Z,14.00
2022-09-25T22:02:42.129Z,13.90
2022-09-25T22:07:43.928Z,13.90
2022-09-25T22:12:45.665Z,13.80
2022-09-25T22:17:47.374Z,13.70
2022-09-25T22:22:49.354Z,13.60
2022-09-25T22:27:51.092Z,13.70
2022-09-25T22:32:52.850Z,13.70
2022-09-25T22:37:54.566Z,13.50
2022-09-25T22:43:01.347Z,13.40
2022-09-25T22:48:03.078Z,13.20
2022-09-25T22:53:04.765Z,13.20
2022-09-25T22:58:06.501Z,13.20
2022-09-25T23:03:08.187Z,13.10
2022-09-25T23:08:10.665Z,13.10
2022-09-25T23:13:12.439Z,13.20
2022-09-25T23:18:14.223Z,13.20
2022-09-25T23:23:15.922Z,13.10
2022-09-25T23:28:17.610Z,13.10
2022-09-25T23:33:19.316Z,13.00
2022-09-25T23:38:21.014Z,13.10
2022-09-25T23:43:22.792Z,12.90
2022-09-25T23:48:24.735Z,12.80
2022-09-25T23:53:26.773Z,12.80
2022-09-25T23:58:30.727Z,12.90
